Terminal Aerodrome Forecast
Issued by NWS Sioux Falls, SD

Home | Current Version | Previous Version | Text Only | Print | Product List | Glossary On
Versions: 1 2 3 4 5 6 7 8 9 10 11 12 13 14 15
000
FTUS43 KFSD 221738 AAB
TAFFSD
TAF AMD
KFSD 221738Z 2218/2318 01025G33KT 6SM BLSN OVC012
      TEMPO 2218/2220 1SM -SN BLSN OVC005
     FM222300 35019G27KT 6SM BLSN OVC010
     FM230500 34013KT P6SM BKN010
     FM230700 34012KT P6SM SCT010
     FM231500 32006KT P6SM BKN008
     FM231700 30007KT P6SM BKN025=

USA.gov is the U.S. government's official web portal to all federal, state and local government web resources and services.